Time;durP1;ratioP1;P1;durP2;ratioP2;P2;SDS_P1;SDS_P2;PMS_P1;PMS_P2;Temp;Humidity;BMP_temperature;BMP_pressure;BME280_temperature;BME280_humidity;BME280_pressure;Samples;Min_cycle;Max_cycle;Signal;HPM_P1;HPM_P2
2022/12/10 00:01:17;;;;;;;61.63;25.30;;;3.30;66.50;;;;;;5024756;28;46441;-70
2022/12/10 00:03:44;;;;;;;64.93;23.98;;;3.30;66.60;;;;;;5017639;28;46311;-69
2022/12/10 00:06:12;;;;;;;74.05;26.40;;;3.30;65.90;;;;;;5026870;28;48085;-68
2022/12/10 00:08:38;;;;;;;63.85;23.77;;;3.30;67.10;;;;;;5016080;28;46382;-70
2022/12/10 00:11:06;;;;;;;74.25;25.50;;;3.30;67.00;;;;;;5014258;28;46384;-69
2022/12/10 00:13:34;;;;;;;63.67;24.20;;;3.30;67.10;;;;;;5010982;28;45921;-68
2022/12/10 00:16:01;;;;;;;64.75;25.80;;;3.30;66.10;;;;;;5010379;28;47365;-69
2022/12/10 00:18:27;;;;;;;58.88;24.77;;;3.40;67.20;;;;;;5026108;28;46305;-68
2022/12/10 00:20:53;;;;;;;67.50;24.10;;;3.40;67.30;;;;;;5027428;28;46451;-71
2022/12/10 00:23:19;;;;;;;64.43;25.47;;;3.30;66.10;;;;;;5017166;28;46153;-69
2022/12/10 00:25:44;;;;;;;63.43;24.87;;;3.40;66.00;;;;;;5022249;28;48060;-70
2022/12/10 00:28:10;;;;;;;65.77;25.40;;;3.30;67.00;;;;;;5016895;28;46123;-68
2022/12/10 00:30:36;;;;;;;89.97;28.67;;;3.30;67.10;;;;;;5008997;28;45800;-68
2022/12/10 00:33:02;;;;;;;68.43;27.00;;;3.30;67.20;;;;;;5032070;28;46373;-68
2022/12/10 00:35:27;;;;;;;81.07;29.23;;;3.20;66.70;;;;;;5017108;28;47988;-67
2022/12/10 00:37:53;;;;;;;66.07;24.33;;;3.20;67.80;;;;;;5023344;28;46611;-70
2022/12/10 00:40:19;;;;;;;69.90;28.60;;;3.10;67.80;;;;;;5009874;28;45841;-68
2022/12/10 00:42:45;;;;;;;62.00;25.10;;;3.10;67.80;;;;;;5026037;28;46458;-69
2022/12/10 00:45:10;;;;;;;73.67;25.93;;;3.20;67.80;;;;;;5009669;28;48036;-69
2022/12/10 00:47:36;;;;;;;68.50;27.17;;;3.10;67.80;;;;;;5009209;28;46351;-68
2022/12/10 00:50:02;;;;;;;71.87;25.67;;;3.10;67.90;;;;;;5010580;28;46542;-69
2022/12/10 00:52:27;;;;;;;66.33;24.90;;;3.10;67.80;;;;;;5015467;28;46370;-69
2022/12/10 00:54:53;;;;;;;56.90;23.90;;;3.20;67.70;;;;;;5016845;28;48176;-70
2022/12/10 00:57:19;;;;;;;58.60;21.47;;;3.10;67.70;;;;;;5024872;28;46447;-69
2022/12/10 00:59:44;;;;;;;57.87;23.40;;;3.00;68.90;;;;;;5025655;28;46304;-69
2022/12/10 01:02:10;;;;;;;53.70;22.90;;;3.00;68.10;;;;;;5027445;28;46403;-68
2022/12/10 01:04:36;;;;;;;56.33;24.60;;;3.10;66.80;;;;;;5027078;28;49161;-69
2022/12/10 01:07:01;;;;;;;60.83;24.10;;;3.00;67.60;;;;;;5017428;28;46370;-70
2022/12/10 01:09:29;;;;;;;58.40;23.47;;;3.00;67.70;;;;;;5027989;28;46546;-70
2022/12/10 01:12:01;;;;;;;51.63;22.45;;;3.00;67.90;;;;;;5016195;28;46335;-68
2022/12/10 01:14:30;;;;;;;51.42;23.50;;;3.00;67.10;;;;;;5019659;28;47192;-69
2022/12/10 01:16:59;;;;;;;56.13;24.13;;;2.90;68.00;;;;;;5030872;28;46581;-68
2022/12/10 01:19:25;;;;;;;53.13;22.45;;;2.90;68.20;;;;;;5013079;28;46442;-68
2022/12/10 01:21:52;;;;;;;54.55;21.77;;;2.90;68.30;;;;;;5016132;28;46484;-69
2022/12/10 01:24:25;;;;;;;61.10;23.00;;;2.90;68.20;;;;;;5017803;28;47853;-68
2022/12/10 01:26:52;;;;;;;64.75;24.15;;;2.70;67.30;;;;;;5011651;28;46453;-67
2022/12/10 01:29:18;;;;;;;73.97;22.88;;;2.70;68.80;;;;;;5028942;28;45890;-69
2022/12/10 01:31:44;;;;;;;61.42;23.05;;;2.60;69.10;;;;;;5027083;28;46402;-68
2022/12/10 01:34:13;;;;;;;63.70;23.67;;;2.50;69.40;;;;;;5030397;28;47840;-68
2022/12/10 01:36:43;;;;;;;54.30;23.20;;;2.40;68.50;;;;;;5015158;28;46487;-68
2022/12/10 01:39:12;;;;;;;51.95;20.48;;;2.30;69.60;;;;;;5012297;28;46521;-70
2022/12/10 01:41:43;;;;;;;54.55;20.25;;;2.20;69.90;;;;;;5030945;28;46459;-69
2022/12/10 01:44:08;;;;;;;51.95;20.05;;;2.20;70.00;;;;;;5013147;28;49468;-70
2022/12/10 01:46:35;;;;;;;54.30;21.43;;;2.20;69.10;;;;;;5011538;28;46787;-70
2022/12/10 01:49:13;;;;;;;46.30;19.83;;;2.10;70.20;;;;;;5013914;28;46536;-68
2022/12/10 01:51:41;;;;;;;41.70;18.80;;;2.20;70.30;;;;;;5013277;28;46383;-68
2022/12/10 01:54:15;;;;;;;43.88;19.25;;;2.20;70.10;;;;;;5030137;28;47774;-68
2022/12/10 01:56:43;;;;;;;48.03;20.42;;;2.30;68.70;;;;;;5023233;28;46449;-68
2022/12/10 01:59:10;;;;;;;37.03;17.60;;;2.30;69.60;;;;;;5013165;28;45898;-68
2022/12/10 02:01:36;;;;;;;50.90;19.20;;;2.20;69.80;;;;;;5012487;28;46458;-67
2022/12/10 02:04:30;;;;;;;40.50;18.50;;;2.20;70.00;;;;;;5019433;28;48160;-70
2022/12/10 02:07:20;;;;;;;51.75;19.40;;;2.20;69.10;;;;;;5019198;28;46741;-70
2022/12/10 02:09:56;;;;;;;40.50;18.45;;;2.30;69.90;;;;;;5027492;28;46494;-68
2022/12/10 02:12:35;;;;;;;48.83;19.33;;;2.30;69.40;;;;;;5012898;28;45914;-70
2022/12/10 02:15:15;;;;;;;42.15;16.73;;;2.20;68.90;;;;;;5010981;28;46432;-70
2022/12/10 02:17:50;;;;;;;50.00;19.27;;;2.20;71.10;;;;;;5011038;28;46492;-67
2022/12/10 02:20:25;;;;;;;44.92;17.70;;;2.20;70.00;;;;;;5011562;28;46383;-68
2022/12/10 02:23:07;;;;;;;44.75;18.83;;;2.20;70.00;;;;;;5025673;28;46323;-68
2022/12/10 02:25:49;;;;;;;41.78;17.15;;;2.20;70.00;;;;;;5012148;28;49325;-69
2022/12/10 02:28:45;;;;;;;39.65;17.55;;;2.20;70.00;;;;;;5009675;28;46304;-68
2022/12/10 02:31:14;;;;;;;54.45;20.55;;;2.30;69.90;;;;;;5015242;28;46433;-69
2022/12/10 02:33:45;;;;;;;48.10;19.38;;;2.30;69.80;;;;;;5029170;28;46175;-69
2022/12/10 02:36:13;;;;;;;50.50;18.80;;;2.20;68.80;;;;;;5018819;28;49070;-68
2022/12/10 02:38:41;;;;;;;53.03;20.52;;;2.20;70.20;;;;;;5017547;28;46484;-68
2022/12/10 02:41:19;;;;;;;42.30;17.77;;;2.20;70.10;;;;;;5021113;28;46646;-69
2022/12/10 02:43:47;;;;;;;46.78;19.50;;;2.20;69.90;;;;;;5014358;28;46665;-67
2022/12/10 02:46:13;;;;;;;48.60;19.85;;;2.30;69.00;;;;;;5011269;28;46703;-68
2022/12/10 02:48:40;;;;;;;41.72;16.73;;;2.30;70.00;;;;;;5017831;28;46533;-68
2022/12/10 02:51:06;;;;;;;52.05;20.63;;;2.40;69.50;;;;;;5012880;28;45859;-69
2022/12/10 02:53:32;;;;;;;43.93;20.00;;;2.40;70.70;;;;;;5018959;28;46453;-69
2022/12/10 02:56:41;;;;;;;42.17;18.40;;;2.40;68.60;;;;;;5012196;28;48246;-69
2022/12/10 02:59:22;;;;;;;40.83;15.57;;;2.40;69.50;;;;;;5018634;28;46423;-69
2022/12/10 03:02:08;;;;;;;41.15;17.58;;;2.50;69.40;;;;;;5009813;28;46476;-70
2022/12/10 03:04:57;;;;;;;39.55;17.05;;;2.50;68.60;;;;;;5026146;28;46368;-70
2022/12/10 03:07:35;;;;;;;42.97;18.58;;;2.50;69.50;;;;;;5011821;28;46164;-67
2022/12/10 03:10:37;;;;;;;50.58;18.98;;;2.30;70.00;;;;;;5011830;28;46752;-69
2022/12/10 03:13:07;;;;;;;42.47;17.95;;;2.40;70.20;;;;;;5031353;28;46436;-69
2022/12/10 03:15:36;;;;;;;45.05;18.15;;;2.40;69.10;;;;;;5016935;28;46372;-66
2022/12/10 03:18:04;;;;;;;39.95;17.13;;;2.30;70.10;;;;;;5016339;28;47994;-67
2022/12/10 03:20:32;;;;;;;47.58;17.65;;;2.30;70.50;;;;;;5010865;28;46374;-70
2022/12/10 03:22:59;;;;;;;44.33;17.63;;;2.30;70.50;;;;;;5027218;28;46403;-67
2022/12/10 03:25:27;;;;;;;47.20;19.23;;;2.30;69.30;;;;;;5025768;28;46556;-68
2022/12/10 03:27:55;;;;;;;52.55;18.48;;;2.30;70.30;;;;;;5011908;28;47757;-67
2022/12/10 03:30:22;;;;;;;43.67;18.80;;;2.30;70.70;;;;;;5008508;28;46581;-68
2022/12/10 03:32:48;;;;;;;43.92;17.65;;;2.20;70.80;;;;;;5027343;28;46322;-69
2022/12/10 03:35:15;;;;;;;45.83;18.30;;;2.30;70.80;;;;;;5009463;28;46405;-67
2022/12/10 03:37:41;;;;;;;44.80;18.02;;;2.30;70.40;;;;;;5016866;28;48896;-71
2022/12/10 03:40:10;;;;;;;43.08;16.63;;;2.30;70.20;;;;;;5018119;28;46496;-68
2022/12/10 03:42:36;;;;;;;39.05;17.52;;;2.30;70.10;;;;;;5029056;28;46489;-69
2022/12/10 03:45:03;;;;;;;44.17;17.90;;;2.40;68.70;;;;;;5010904;28;46412;-69
2022/12/10 03:47:29;;;;;;;39.65;18.10;;;2.40;69.90;;;;;;5012591;28;46434;-68
2022/12/10 03:49:55;;;;;;;43.67;18.13;;;2.40;69.60;;;;;;5011250;28;46204;-68
2022/12/10 03:52:21;;;;;;;38.40;15.90;;;2.50;69.70;;;;;;5013446;28;46457;-68
2022/12/10 03:54:46;;;;;;;43.27;17.57;;;2.40;69.00;;;;;;5026170;28;45933;-68
2022/12/10 03:57:12;;;;;;;44.13;18.67;;;2.40;70.00;;;;;;5010951;28;48171;-68
2022/12/10 03:59:38;;;;;;;37.43;17.97;;;2.40;70.10;;;;;;5017303;28;45864;-68
2022/12/10 04:02:04;;;;;;;40.43;16.87;;;1.90;69.80;;;;;;5016690;28;46352;-69
2022/12/10 04:04:29;;;;;;;40.50;16.57;;;2.40;69.40;;;;;;5012597;28;46337;-68
2022/12/10 04:06:55;;;;;;;46.30;18.03;;;2.40;70.40;;;;;;5028165;28;46442;-68
2022/12/10 04:09:21;;;;;;;40.37;15.83;;;2.30;70.30;;;;;;5024974;28;45987;-68
2022/12/10 04:11:47;;;;;;;46.93;18.73;;;2.30;70.50;;;;;;5024734;28;46349;-68
2022/12/10 04:16:58;;;;;;;40.03;16.67;;;2.20;70.20;;;;;;5011155;28;47513;-68
2022/12/10 04:19:24;;;;;;;46.47;17.92;;;2.20;71.20;;;;;;5027551;28;46335;-68
2022/12/10 04:27:30;;;;;;;51.08;17.45;;;2.10;71.30;;;;;;5014325;28;47130;-68
2022/12/10 04:29:57;;;;;;;46.30;18.38;;;2.10;71.10;;;;;;5010149;28;46556;-68
2022/12/10 04:32:24;;;;;;;50.42;19.73;;;2.10;71.10;;;;;;5010062;28;45758;-69
2022/12/10 04:34:50;;;;;;;59.22;22.40;;;2.10;71.10;;;;;;5026149;28;46417;-68
2022/12/10 04:37:16;;;;;;;70.63;22.07;;;2.10;71.10;;;;;;5017067;28;49007;-68
2022/12/10 04:39:43;;;;;;;63.20;23.73;;;2.10;71.20;;;;;;5026637;28;46296;-68
2022/12/10 04:42:08;;;;;;;61.60;23.38;;;2.00;71.10;;;;;;5027759;28;46266;-68
2022/12/10 04:44:35;;;;;;;62.23;24.03;;;1.90;70.00;;;;;;5013611;28;46368;-70
2022/12/10 04:47:00;;;;;;;72.80;25.77;;;1.90;71.00;;;;;;5022350;28;48840;-70
2022/12/10 04:49:27;;;;;;;62.07;25.03;;;1.90;71.00;;;;;;5020999;28;46415;-70
2022/12/10 04:51:52;;;;;;;79.20;26.70;;;1.90;71.10;;;;;;5031223;28;45870;-69
2022/12/10 04:54:19;;;;;;;73.27;26.03;;;1.90;71.00;;;;;;5021937;28;46600;-69
2022/12/10 04:56:45;;;;;;;72.53;27.20;;;1.90;70.00;;;;;;5012539;28;46629;-69
2022/12/10 04:59:11;;;;;;;73.40;27.63;;;1.90;71.00;;;;;;5014150;28;46416;-69
2022/12/10 05:01:37;;;;;;;77.50;28.50;;;1.90;71.00;;;;;;5017255;28;46447;-69
2022/12/10 05:04:05;;;;;;;76.00;29.80;;;1.90;71.00;;;;;;5033494;28;46401;-69
2022/12/10 05:06:32;;;;;;;85.60;32.65;;;2.00;70.00;;;;;;5013002;28;48694;-68
2022/12/10 05:08:58;;;;;;;72.95;28.50;;;2.10;71.20;;;;;;5014960;28;45887;-68
2022/12/10 05:11:26;;;;;;;79.20;28.17;;;2.20;71.20;;;;;;5015051;28;45892;-68
2022/12/10 05:13:53;;;;;;;74.35;31.35;;;2.20;70.70;;;;;;5015189;28;46471;-68
2022/12/10 05:16:20;;;;;;;75.38;29.00;;;2.30;69.20;;;;;;5011684;28;47756;-71
2022/12/10 05:18:46;;;;;;;86.18;30.27;;;2.30;70.30;;;;;;5011012;28;46356;-68
2022/12/10 05:21:15;;;;;;;82.78;31.67;;;2.30;70.50;;;;;;5013422;28;46393;-70
2022/12/10 05:23:44;;;;;;;67.22;28.58;;;2.30;70.40;;;;;;5028477;28;46255;-71
2022/12/10 05:26:17;;;;;;;69.30;27.95;;;2.10;70.10;;;;;;5032479;28;48210;-68
2022/12/10 05:28:48;;;;;;;72.85;26.90;;;2.00;71.10;;;;;;5019624;28;46469;-69
2022/12/10 05:31:15;;;;;;;73.30;25.77;;;2.00;71.10;;;;;;5011303;28;46201;-67
2022/12/10 05:33:41;;;;;;;73.05;25.17;;;2.10;71.10;;;;;;5020105;28;46300;-69
2022/12/10 05:36:09;;;;;;;62.67;21.13;;;2.20;70.20;;;;;;5022753;28;48964;-71
2022/12/10 05:38:35;;;;;;;69.72;25.38;;;2.20;71.20;;;;;;5009597;28;46503;-70
2022/12/10 05:41:03;;;;;;;61.17;24.50;;;2.10;71.10;;;;;;5020524;28;46426;-69
2022/12/10 05:43:29;;;;;;;63.88;25.65;;;2.00;71.10;;;;;;5030306;28;46688;-69
2022/12/10 05:46:02;;;;;;;61.20;22.40;;;2.00;70.00;;;;;;5018921;28;48177;-69
2022/12/10 05:48:28;;;;;;;64.63;23.55;;;2.00;71.10;;;;;;5008607;28;46374;-68
2022/12/10 05:50:54;;;;;;;62.58;24.25;;;2.10;71.10;;;;;;5028143;28;46373;-68
2022/12/10 05:53:20;;;;;;;61.37;23.10;;;2.10;71.10;;;;;;5015285;28;46432;-68
2022/12/10 05:55:46;;;;;;;66.30;24.20;;;2.20;70.20;;;;;;5027140;28;49008;-68
2022/12/10 05:58:11;;;;;;;67.27;24.13;;;2.20;71.20;;;;;;5021104;28;46355;-68
2022/12/10 06:00:40;;;;;;;62.27;24.33;;;2.20;71.20;;;;;;5029355;28;46406;-69
2022/12/10 06:03:05;;;;;;;71.38;26.25;;;2.20;71.20;;;;;;5030428;28;46477;-71
2022/12/10 06:05:38;;;;;;;64.27;24.43;;;2.10;71.20;;;;;;5023216;28;48999;-70
2022/12/10 06:08:05;;;;;;;70.93;25.38;;;2.10;71.10;;;;;;5016133;28;46536;-70
2022/12/10 06:10:30;;;;;;;66.38;24.88;;;2.10;71.20;;;;;;5033004;28;46411;-69
2022/12/10 06:12:56;;;;;;;77.00;26.67;;;2.00;71.10;;;;;;5029983;28;46661;-69
2022/12/10 06:15:22;;;;;;;79.90;26.20;;;2.10;70.10;;;;;;5011973;28;47830;-68
2022/12/10 06:17:47;;;;;;;75.40;25.10;;;2.10;71.20;;;;;;5028756;28;46372;-69
2022/12/10 06:20:13;;;;;;;73.93;27.00;;;2.00;71.10;;;;;;5011028;28;46449;-70
2022/12/10 06:22:39;;;;;;;86.77;27.10;;;2.00;71.10;;;;;;5027810;28;46763;-70
2022/12/10 06:25:06;;;;;;;92.93;26.47;;;2.00;71.10;;;;;;5027228;28;47626;-68
2022/12/10 06:27:32;;;;;;;89.70;26.83;;;2.00;71.10;;;;;;5019248;28;46379;-67
2022/12/10 06:29:58;;;;;;;79.40;26.42;;;1.90;71.00;;;;;;5028863;28;46360;-69
2022/12/10 06:32:24;;;;;;;86.00;26.93;;;1.90;71.10;;;;;;5011848;28;46586;-68
2022/12/10 06:34:50;;;;;;;88.40;27.38;;;2.00;70.00;;;;;;5025837;28;47642;-70
2022/12/10 06:37:15;;;;;;;84.60;26.67;;;2.00;71.10;;;;;;5018394;28;45958;-69
2022/12/10 06:39:41;;;;;;;81.50;26.53;;;2.10;71.20;;;;;;5020858;28;46332;-69
2022/12/10 06:42:08;;;;;;;83.63;26.10;;;2.10;71.10;;;;;;5016195;28;46389;-70
2022/12/10 06:44:33;;;;;;;82.82;26.35;;;2.10;70.10;;;;;;5013901;28;48800;-68
2022/12/10 06:46:59;;;;;;;88.53;27.00;;;2.10;71.20;;;;;;5019580;28;46402;-69
2022/12/10 06:49:25;;;;;;;86.07;27.20;;;2.10;71.10;;;;;;5029369;28;46545;-67
2022/12/10 06:51:51;;;;;;;70.20;25.80;;;2.10;71.10;;;;;;5018740;28;46415;-69
2022/12/10 06:54:16;;;;;;;80.13;27.30;;;2.10;71.20;;;;;;5010950;28;48266;-69
2022/12/10 06:56:42;;;;;;;80.43;27.43;;;2.00;70.00;;;;;;5019177;28;46320;-68
2022/12/10 06:59:07;;;;;;;83.23;27.03;;;2.50;71.50;;;;;;5030992;28;46280;-68
2022/12/10 07:01:34;;;;;;;85.47;28.13;;;2.10;71.20;;;;;;5020066;28;45954;-69
2022/12/10 07:04:00;;;;;;;70.85;26.00;;;2.10;71.10;;;;;;5018481;28;48266;-68
2022/12/10 07:06:27;;;;;;;84.23;27.63;;;2.10;70.10;;;;;;5029038;28;46405;-69
2022/12/10 07:08:54;;;;;;;72.72;26.10;;;2.00;71.10;;;;;;5012009;28;46066;-70
2022/12/10 07:11:22;;;;;;;71.43;27.80;;;2.00;71.10;;;;;;5028924;28;46504;-68
2022/12/10 07:13:48;;;;;;;77.63;27.95;;;2.00;71.30;;;;;;5019129;28;47893;-69
2022/12/10 07:16:29;;;;;;;65.50;26.10;;;1.90;70.30;;;;;;5018953;28;46453;-70
2022/12/10 07:18:57;;;;;;;72.97;26.38;;;1.90;71.70;;;;;;5008426;28;46391;-69
2022/12/10 07:21:23;;;;;;;71.75;32.60;;;1.90;71.30;;;;;;5015961;28;46509;-70
2022/12/10 07:23:50;;;;;;;58.65;26.13;;;2.00;71.10;;;;;;5029105;28;46633;-71
2022/12/10 07:26:17;;;;;;;69.50;29.25;;;2.00;70.10;;;;;;5010660;28;46312;-68
2022/12/10 07:28:42;;;;;;;70.85;34.47;;;2.00;71.10;;;;;;5028679;28;46489;-70
2022/12/10 07:31:09;;;;;;;52.40;24.97;;;2.10;71.20;;;;;;5020164;28;46394;-69
2022/12/10 07:33:36;;;;;;;58.85;26.23;;;2.00;71.10;;;;;;5018479;28;47755;-68
2022/12/10 07:36:10;;;;;;;54.80;23.48;;;2.00;70.00;;;;;;5011340;28;45888;-68
2022/12/10 07:38:36;;;;;;;65.90;36.08;;;2.00;71.20;;;;;;5011643;28;46432;-70
2022/12/10 07:41:08;;;;;;;64.63;29.73;;;2.00;71.30;;;;;;5018668;28;46056;-70
2022/12/10 07:43:38;;;;;;;55.88;24.52;;;2.00;71.20;;;;;;5025776;28;47753;-70
2022/12/10 07:46:34;;;;;;;55.78;24.13;;;1.90;70.50;;;;;;5011522;28;46800;-69
2022/12/10 07:49:01;;;;;;;47.60;25.15;;;1.90;71.60;;;;;;5011470;28;46397;-69
2022/12/10 07:51:27;;;;;;;48.38;24.10;;;1.90;71.50;;;;;;5010211;28;46653;-70
2022/12/10 07:53:54;;;;;;;58.93;24.90;;;1.90;71.70;;;;;;5009110;28;47817;-70
2022/12/10 07:56:21;;;;;;;59.45;23.75;;;2.00;70.50;;;;;;5016695;28;46401;-70
2022/12/10 07:58:46;;;;;;;56.67;25.92;;;2.00;71.30;;;;;;5012274;28;45808;-69
2022/12/10 08:01:19;;;;;;;53.73;24.43;;;1.90;71.70;;;;;;5012716;28;46066;-69
2022/12/10 08:03:45;;;;;;;48.00;21.92;;;1.90;71.70;;;;;;5016488;28;47981;-71
2022/12/10 08:06:17;;;;;;;55.17;23.80;;;1.80;70.70;;;;;;5026330;28;46566;-70
2022/12/10 08:08:43;;;;;;;56.58;25.60;;;1.80;71.90;;;;;;5027090;28;45938;-69
2022/12/10 08:11:10;;;;;;;54.72;24.55;;;1.80;72.00;;;;;;5025046;28;46629;-69
2022/12/10 08:13:35;;;;;;;64.97;25.65;;;1.90;71.90;;;;;;5025851;28;46703;-69
2022/12/10 08:16:04;;;;;;;61.33;25.77;;;1.90;70.50;;;;;;5016542;28;46479;-69
2022/12/10 08:18:31;;;;;;;51.88;24.20;;;1.90;71.70;;;;;;5028880;28;46508;-71
2022/12/10 08:20:56;;;;;;;64.15;25.08;;;1.90;71.80;;;;;;5029172;28;46597;-70
2022/12/10 08:23:22;;;;;;;60.60;24.67;;;1.90;71.90;;;;;;5018207;28;47861;-71
2022/12/10 08:25:48;;;;;;;56.33;25.10;;;1.80;70.80;;;;;;5026828;28;46450;-70
2022/12/10 08:28:14;;;;;;;71.17;28.57;;;1.80;72.20;;;;;;5017186;28;46360;-70
2022/12/10 08:30:39;;;;;;;56.57;24.80;;;1.80;72.20;;;;;;5017250;28;46569;-69
2022/12/10 08:33:05;;;;;;;59.70;28.20;;;1.90;71.90;;;;;;5026227;28;47531;-71
2022/12/10 08:35:31;;;;;;;69.23;28.90;;;1.90;70.90;;;;;;5026622;28;46366;-70
2022/12/10 08:37:57;;;;;;;56.60;23.02;;;1.90;71.90;;;;;;5026168;28;46435;-70
2022/12/10 08:40:22;;;;;;;58.80;23.87;;;2.00;71.50;;;;;;5025110;28;46303;-71
2022/12/10 08:42:48;;;;;;;55.60;23.47;;;2.00;71.50;;;;;;5017024;28;48966;-69
2022/12/10 08:45:14;;;;;;;55.73;23.60;;;2.00;70.60;;;;;;5008924;28;45907;-70
2022/12/10 08:47:39;;;;;;;52.10;23.40;;;2.00;71.70;;;;;;5017934;28;46475;-70
2022/12/10 08:50:05;;;;;;;59.20;25.30;;;1.90;72.00;;;;;;5015215;28;46420;-70
2022/12/10 08:52:31;;;;;;;56.10;26.03;;;2.00;71.80;;;;;;5017212;28;47589;-70
2022/12/10 08:54:57;;;;;;;59.50;26.03;;;2.10;70.70;;;;;;5009978;28;46486;-70
2022/12/10 08:57:22;;;;;;;60.10;25.27;;;2.10;71.50;;;;;;5010088;28;45898;-70
2022/12/10 08:59:48;;;;;;;57.00;24.87;;;2.20;71.20;;;;;;5028375;28;46350;-69
2022/12/10 09:02:14;;;;;;;52.63;24.90;;;2.30;71.40;;;;;;5016398;28;48261;-70
2022/12/10 09:04:39;;;;;;;52.60;23.90;;;2.10;70.70;;;;;;5025595;28;46312;-70
2022/12/10 09:07:05;;;;;;;52.13;23.70;;;2.10;71.50;;;;;;5016609;28;45924;-69
2022/12/10 09:09:31;;;;;;;57.70;24.80;;;2.10;71.90;;;;;;5011693;28;46571;-70
2022/12/10 09:11:57;;;;;;;51.72;25.75;;;2.10;71.60;;;;;;5017518;28;46777;-71
2022/12/10 09:14:23;;;;;;;51.17;22.20;;;2.20;71.30;;;;;;5010967;28;45802;-70
2022/12/10 09:16:49;;;;;;;51.08;23.60;;;2.30;70.30;;;;;;5017236;28;46481;-70
2022/12/10 09:19:15;;;;;;;57.92;23.70;;;2.20;71.20;;;;;;5009823;28;46372;-69
2022/12/10 09:21:41;;;;;;;60.15;26.27;;;2.20;71.50;;;;;;5016178;28;48252;-70
2022/12/10 09:24:08;;;;;;;57.60;25.00;;;2.20;71.70;;;;;;5010026;28;46759;-69
2022/12/10 09:26:33;;;;;;;46.47;21.50;;;2.20;70.80;;;;;;5024155;28;45957;-70
2022/12/10 09:28:59;;;;;;;53.57;23.30;;;2.10;72.00;;;;;;5011274;28;46475;-68
2022/12/10 09:31:25;;;;;;;58.07;25.57;;;2.10;72.30;;;;;;5014594;28;46417;-69
2022/12/10 09:33:53;;;;;;;52.75;23.88;;;1.90;72.60;;;;;;5019526;28;46457;-69
2022/12/10 09:36:20;;;;;;;57.70;23.98;;;1.90;71.90;;;;;;5028178;28;46650;-70
2022/12/10 09:38:46;;;;;;;48.50;21.60;;;1.90;72.90;;;;;;5026331;28;46435;-69
2022/12/10 09:41:54;;;;;;;54.95;25.55;;;1.90;72.80;;;;;;5012813;28;48133;-67
2022/12/10 09:44:45;;;;;;;50.38;22.40;;;1.90;73.10;;;;;;5013975;28;46358;-69
2022/12/10 09:47:12;;;;;;;47.83;23.63;;;1.90;71.80;;;;;;5004397;28;46488;-70
2022/12/10 09:50:22;;;;;;;46.47;20.67;;;2.00;73.00;;;;;;5028782;28;46593;-69
2022/12/10 09:52:50;;;;;;;58.78;24.90;;;2.00;72.80;;;;;;5020373;28;47611;-68
2022/12/10 09:55:29;;;;;;;53.42;22.88;;;2.10;71.50;;;;;;5014333;28;46569;-70
2022/12/10 09:57:55;;;;;;;53.65;22.55;;;2.10;72.20;;;;;;5016432;28;46355;-70
2022/12/10 10:00:33;;;;;;;45.20;19.60;;;2.20;72.10;;;;;;5029244;28;46704;-69
2022/12/10 10:03:00;;;;;;;46.33;21.50;;;2.20;72.00;;;;;;5015760;28;46445;-69
2022/12/10 10:05:33;;;;;;;52.67;23.33;;;2.20;70.20;;;;;;5030566;28;46595;-69
2022/12/10 10:08:05;;;;;;;45.95;22.15;;;2.30;71.30;;;;;;5012350;28;46675;-69
2022/12/10 10:10:37;;;;;;;52.92;22.70;;;2.30;71.30;;;;;;5028200;28;46690;-69
2022/12/10 10:13:26;;;;;;;45.00;21.48;;;2.30;71.30;;;;;;5028767;28;48703;-69
2022/12/10 10:15:52;;;;;;;44.88;21.38;;;2.40;71.40;;;;;;5017555;28;46397;-69
2022/12/10 10:18:32;;;;;;;47.65;20.85;;;2.40;71.50;;;;;;5019185;28;46677;-68
2022/12/10 10:20:59;;;;;;;42.78;21.60;;;2.40;71.40;;;;;;5019594;28;46391;-70
2022/12/10 10:23:25;;;;;;;41.50;19.90;;;2.50;71.50;;;;;;5018566;28;48007;-69
2022/12/10 10:25:51;;;;;;;44.60;19.27;;;2.30;70.30;;;;;;5029206;28;46245;-69
2022/12/10 10:28:22;;;;;;;34.05;16.45;;;2.40;71.40;;;;;;5012491;28;46395;-68
2022/12/10 10:30:51;;;;;;;29.92;16.65;;;2.50;71.50;;;;;;5014056;28;46460;-69
2022/12/10 10:33:17;;;;;;;35.15;17.70;;;2.40;71.40;;;;;;5011054;28;47742;-69
2022/12/10 10:35:53;;;;;;;36.67;17.65;;;2.40;70.40;;;;;;5026327;28;46311;-70
2022/12/10 10:38:26;;;;;;;40.72;19.92;;;2.40;71.40;;;;;;5026989;28;46454;-68
2022/12/10 10:40:58;;;;;;;42.30;19.23;;;2.50;71.50;;;;;;5025598;28;46312;-69
2022/12/10 10:43:27;;;;;;;40.20;20.45;;;2.50;71.50;;;;;;5009256;28;47979;-69
2022/12/10 10:46:06;;;;;;;38.13;19.63;;;2.30;70.90;;;;;;5010980;28;46380;-68
2022/12/10 10:48:32;;;;;;;42.35;20.65;;;2.20;72.20;;;;;;5026329;28;46677;-69
2022/12/10 10:51:18;;;;;;;44.35;20.02;;;2.20;72.40;;;;;;5016802;28;46591;-69
2022/12/10 10:53:44;;;;;;;37.10;18.23;;;2.20;71.90;;;;;;5018179;28;48061;-68
2022/12/10 10:56:17;;;;;;;41.43;20.93;;;2.20;70.50;;;;;;5016931;28;46381;-67
2022/12/10 10:59:06;;;;;;;46.58;21.92;;;2.30;71.40;;;;;;5026937;28;46534;-68
2022/12/10 11:01:44;;;;;;;41.55;21.23;;;2.40;71.40;;;;;;5027735;28;46579;-68
2022/12/10 11:04:10;;;;;;;45.88;22.77;;;2.30;71.30;;;;;;5011046;28;48242;-69
2022/12/10 11:06:36;;;;;;;42.00;20.75;;;2.30;70.30;;;;;;5011480;28;46426;-70
2022/12/10 11:09:05;;;;;;;45.30;22.27;;;2.40;71.40;;;;;;5014284;28;46367;-70
2022/12/10 11:11:33;;;;;;;47.95;21.33;;;2.50;71.60;;;;;;5017315;28;46326;-68
2022/12/10 11:14:19;;;;;;;42.00;21.60;;;2.70;71.70;;;;;;5019778;28;48815;-70
2022/12/10 11:16:45;;;;;;;37.85;19.88;;;2.80;70.00;;;;;;5010368;28;46410;-69
2022/12/10 11:19:21;;;;;;;31.67;17.07;;;2.80;70.90;;;;;;5014335;28;46468;-68
2022/12/10 11:21:47;;;;;;;33.03;15.48;;;2.70;71.70;;;;;;5008929;28;46459;-68
2022/12/10 11:24:16;;;;;;;28.55;13.95;;;2.50;71.50;;;;;;5008740;28;47903;-70
2022/12/10 11:27:13;;;;;;;29.92;16.70;;;2.20;70.20;;;;;;5028286;28;46404;-69
2022/12/10 11:30:03;;;;;;;30.77;17.88;;;2.10;72.20;;;;;;5027542;28;46688;-67
2022/12/10 11:33:10;;;;;;;31.02;18.38;;;2.20;71.90;;;;;;5012688;28;46425;-69
2022/12/10 11:36:01;;;;;;;45.28;20.75;;;2.50;70.50;;;;;;5011487;28;46282;-68
2022/12/10 11:39:16;;;;;;;40.38;19.35;;;2.50;71.60;;;;;;5011550;28;46443;-68
2022/12/10 11:41:41;;;;;;;34.00;18.15;;;2.60;71.60;;;;;;5019130;28;46404;-67
2022/12/10 11:44:39;;;;;;;39.70;19.57;;;2.60;71.60;;;;;;5030409;28;46549;-69
2022/12/10 11:47:18;;;;;;;35.03;16.95;;;2.50;71.50;;;;;;5010823;28;46566;-68
2022/12/10 11:50:18;;;;;;;34.38;18.00;;;2.50;71.50;;;;;;5009772;28;46662;-67
2022/12/10 11:53:15;;;;;;;37.22;19.50;;;2.50;71.50;;;;;;5006580;28;46394;-67
2022/12/10 11:56:10;;;;;;;32.88;16.80;;;2.40;70.40;;;;;;5008928;28;46556;-68
2022/12/10 11:58:54;;;;;;;38.85;21.95;;;2.30;71.30;;;;;;5005480;28;49130;-69
2022/12/10 12:01:20;;;;;;;43.90;25.97;;;2.20;71.20;;;;;;5016821;28;46454;-68
2022/12/10 12:04:23;;;;;;;38.60;21.53;;;2.20;71.20;;;;;;5013548;28;46493;-70
2022/12/10 12:07:01;;;;;;;43.83;22.23;;;2.20;70.60;;;;;;5011241;28;47415;-70
2022/12/10 12:09:53;;;;;;;45.70;27.00;;;2.20;71.90;;;;;;5007744;28;47864;-68
2022/12/10 12:13:05;;;;;;;41.15;21.90;;;2.30;71.50;;;;;;5026380;28;47192;-68
2022/12/10 12:15:44;;;;;;;40.00;20.15;;;2.30;70.90;;;;;;5011673;28;45934;-70
2022/12/10 12:18:38;;;;;;;38.17;21.10;;;2.20;71.60;;;;;;5008133;28;46681;-67
2022/12/10 12:21:10;;;;;;;42.80;23.57;;;2.10;71.90;;;;;;5008496;28;47661;-68
2022/12/10 12:23:41;;;;;;;38.20;20.70;;;2.10;71.90;;;;;;5025206;28;46430;-70
2022/12/10 12:26:36;;;;;;;44.58;22.55;;;2.00;71.60;;;;;;5010554;28;46634;-69
2022/12/10 12:29:27;;;;;;;42.38;24.17;;;2.10;72.40;;;;;;5016640;28;46565;-68
2022/12/10 12:32:17;;;;;;;37.80;20.65;;;2.10;72.10;;;;;;5012653;28;46419;-69
2022/12/10 12:35:05;;;;;;;33.97;18.25;;;2.10;71.00;;;;;;5026890;28;46756;-70
2022/12/10 12:37:57;;;;;;;31.52;16.48;;;2.10;71.80;;;;;;5027265;28;46331;-69
2022/12/10 12:40:44;;;;;;;33.10;18.20;;;2.10;71.20;;;;;;5029191;28;45904;-69
2022/12/10 12:43:23;;;;;;;35.03;17.80;;;2.20;71.20;;;;;;5011094;28;46577;-70
2022/12/10 12:45:52;;;;;;;37.38;18.55;;;2.30;70.30;;;;;;5011987;28;46315;-68
2022/12/10 12:48:30;;;;;;;38.47;19.67;;;2.40;71.40;;;;;;5007383;28;46468;-68
2022/12/10 12:51:09;;;;;;;38.75;19.52;;;2.30;72.50;;;;;;5009779;28;46309;-69
2022/12/10 12:53:35;;;;;;;35.72;19.73;;;2.30;71.30;;;;;;5011426;28;46355;-70
2022/12/10 12:56:29;;;;;;;38.10;20.17;;;2.30;70.30;;;;;;5010314;28;47427;-69
2022/12/10 12:59:10;;;;;;;38.10;20.45;;;2.30;71.30;;;;;;5011177;28;46412;-69
2022/12/10 13:01:53;;;;;;;41.75;20.02;;;2.20;71.20;;;;;;5029373;28;46362;-68
2022/12/10 13:04:19;;;;;;;36.60;18.05;;;2.20;71.30;;;;;;5011643;28;46462;-69